ADDS METAR Data INFO
IDs: Format: Raw Decoded Include TAF

Data at: 0351 UTC 20 Feb 2018

KGUC 200256Z AUTO 27012G16KT 10SM FEW050 OVC070 M04/M09 A2949 RMK AO2 SNE45 SLP011 P0000 60000 T10391094 53031 FZRANO
KGUC 200156Z AUTO 25007KT 8SM -SN OVC033 M04/M07 A2946 RMK AO2 PK WND 26027/0115 SLP002 P0000 T10391067 FZRANO
KGUC 200140Z AUTO 22006KT 4SM -SN BR FEW019 BKN030 OVC035 M04/M06 A2947 RMK AO2 PK WND 26027/0115 PRESRR P0000 FZRANO
KGUC 200121Z AUTO 23014G27KT 4SM -SN FEW005 BKN024 OVC034 M03/M06 A2943 RMK AO2 PK WND 26027/0115 PRESRR P0000 FZRANO
KGUC 200108Z AUTO 24010KT 2SM -SN BR SCT005 BKN021 OVC026 M02/M03 A2940 RMK AO2 P0000 FZRANO
KGUC 200103Z AUTO 24006KT 1 1/4SM -SN BR BKN005 BKN010 OVC023 M02/M03 A2938 RMK AO2 CIG 003V008 P0000 FZRANO
KGUC 200100Z AUTO 23007KT 3/4SM -SN BR BKN005 BKN021 OVC025 M02/M03 A2938 RMK AO2 CIG 003V009 P0000 FZRANO
KGUC 200056Z AUTO 24009KT 1/4SM SN FZFG OVC005 M02/M03 A2937 RMK AO2 CIG 003V008 SLP969 P0000 T10221028 FZRANO
KGUC 200034Z AUTO 24008G18KT 1/4SM +SN FZFG BKN005 OVC009 M02/M03 A2936 RMK AO2 CIG 003V008 P0000 FZRANO
KGUC 200003Z AUTO 25012G17KT 1/2SM SN FZFG BKN007 OVC012 M02/M02 A2936 RMK AO2 CIG 004V008 P0000 FZRANO
KGUC 192356Z AUTO 26011KT 3/4SM -SN BR BKN005 BKN010 OVC014 M01/M02 A2937 RMK AO2 CIG 004V007 SLP962 P0000 60000 T10111022 10044 21017 53009 FZRANO
KGUC 192347Z AUTO 21007KT 3/4SM -SN BR BKN005 OVC012 M01/M02 A2937 RMK AO2 P0000 FZRANO
KGUC 192328Z AUTO 23008KT 1/4SM +SN FZFG BKN005 OVC008 M01/M02 A2936 RMK AO2 CIG 004V008 P0000 FZRANO
KGUC 192318Z AUTO 23009KT 1/2SM SN FZFG BKN008 BKN014 OVC020 M01/M02 A2937 RMK AO2 CIG 006V013 P0000 FZRANO
KGUC 192311Z AUTO 21007KT 3/4SM -SN BR SCT008 BKN012 OVC025 M01/M02 A2936 RMK AO2 P0000 FZRANO
KGUC 192306Z AUTO 22004KT 1SM -SN BR FEW006 BKN020 OVC033 M01/M02 A2935 RMK AO2 P0000 FZRANO
KGUC 192256Z AUTO 25006KT 1 3/4SM -SN BR FEW011 BKN025 OVC036 M01/M02 A2935 RMK AO2 RAB10E19UPB19E30SNB30 SLP950 P0000 T10061017 FZRANO
KGUC 192253Z AUTO 24006KT 1 3/4SM -SN BR FEW011 BKN028 OVC036 M01/M02 A2936 RMK AO2 RAB10E19UPB19E30SNB30 P0000 FZRANO
KGUC 192237Z AUTO 23007KT 2 1/2SM -SN BKN028 OVC035 01/M02 A2935 RMK AO2 VIS 1 3/4V4 RAB10E19UPB19E30SNB30 P0000 FZRANO
KGUC 192156Z AUTO 23008KT 10SM SCT028 BKN060 OVC080 02/M04 A2934 RMK AO2 RAB2057E39UPB39E44 SLP936 P0000 T00221039 FZRANO
KGUC 192149Z AUTO 25007KT 10SM BKN028 BKN034 OVC080 02/M04 A2933 RMK AO2 RAB2057E39UPB39E44 P0000 FZRANO
KGUC 192056Z AUTO 27011KT 10SM FEW038 BKN065 OVC095 02/M04 A2935 RMK AO2 SLP942 T00221039 56018 FZRANO
KGUC 191956Z AUTO VRB06KT 10SM FEW032 SCT049 OVC055 04/M04 A2936 RMK AO2 SLP937 T00441044
KGUC 191856Z AUTO 21007KT 10SM FEW049 SCT080 04/M07 A2939 RMK AO2 SLP948 T00391067
KGUC 191656Z AUTO 23006KT 10SM CLR 04/M08 A2945 RMK AO2 SLP960 T00391078
KGUC 191556Z AUTO 00000KT 10SM FEW095 01/M06 A2948 RMK AO2 SLP975 T00111061 FZRANO
KGUC 191456Z AUTO 00000KT 10SM SCT070 BKN090 M04/M07 A2952 RMK AO2 SNE01 SLP994 P0000 60000 T10391072 57004 FZRANO
KGUC 191356Z AUTO 00000KT 9SM -SN FEW045 BKN060 OVC075 M04/M08 A2951 RMK AO2 SNB51 SLP992 P0000 T10441078 FZRANO
KGUC 191256Z AUTO 18005KT 10SM OVC060 M06/M08 A2954 RMK AO2 SLP004 T10561078 FZRANO
KGUC 191156Z AUTO 20003KT 10SM OVC070 M05/M08 A2953 RMK AO2 SLP992 T10501078 11022 21056 58005 FZRANO
KGUC 191056Z AUTO 20004KT 10SM OVC070 M04/M08 A2955 RMK AO2 SLP994 T10441078 FZRANO
KGUC 190956Z AUTO 00000KT 10SM BKN070 M04/M08 A2955 RMK AO2 SLP988 T10391083 FZRANO
KGUC 190856Z AUTO 00000KT 10SM FEW080 M03/M08 A2955 RMK AO2 SLP989 T10331083 56008 FZRANO
KGUC 190756Z AUTO 18004KT 10SM FEW085 M03/M08 A2955 RMK AO2 SLP990 T10331083 FZRANO
KGUC 190656Z AUTO 34005KT 10SM CLR M03/M09 A2957 RMK AO2 SLP000 T10281089 FZRANO
KGUC 190556Z AUTO 35008KT 10SM CLR M02/M08 A2958 RMK AO2 SLP023 T10221083 10089 21022 401001122 56010 FZRANO
KGUC 190456Z AUTO 01004KT 10SM CLR 00/M08 A2960 RMK AO2 SLP032 T00001083 FZRANO
KGUC 190356Z AUTO 00000KT 10SM FEW095 02/M09 A2960 RMK AO2 SLP041 T00221094 FZRANO
KGUC 190256Z AUTO 18010KT 10SM OVC100 05/M10 A2962 RMK AO2 SLP051 T00501100 58003
KGUC 190156Z AUTO 17011G16KT 10SM OVC100 06/M09 A2963 RMK AO2 SLP058 T00561089
KGUC 190056Z AUTO 16012KT 10SM BKN110 05/M09 A2963 RMK AO2 SLP055 T00501094
KGUC 182356Z AUTO 28012G18KT 10SM CLR 08/M13 A2963 RMK AO2 SLP045 T00831128 10100 20011 58013
KGUC 182256Z AUTO 26014G24KT 10SM CLR 09/M13 A2966 RMK AO2 PK WND 26033/2216 SLP051 T00891128
KGUC 182156Z AUTO 26018G26KT 10SM CLR 10/M13 A2967 RMK AO2 PK WND 23033/2117 SLP045 T01001128
KGUC 182056Z AUTO 24019G30KT 10SM CLR 09/M12 A2968 RMK AO2 PK WND 26034/2037 SLP052 T00941122 56033
KGUC 181956Z AUTO 26017G26KT 10SM CLR 09/M12 A2971 RMK AO2 PK WND 26033/1919 WSHFT 1855 SLP058 T00941117
KGUC 181920Z AUTO 27022G33KT 10SM CLR 09/M12 A2971 RMK AO2 PK WND 26033/1919 WSHFT 1855
KGUC 181856Z AUTO 26016G22KT 230V300 10SM CLR 07/M09 A2974 RMK AO2 SLP073 T00721094
KGUC 181756Z AUTO 12003KT 10SM CLR 01/M11 A2980 RMK AO2 SLP117 T00111106 10011 21122 58035 FZRANO
KGUC 181656Z AUTO VRB04KT 10SM CLR M03/M09 A2986 RMK AO2 SLP147 T10281094 FZRANO
KGUC 181556Z AUTO 00000KT 10SM CLR M07/M12 A2991 RMK AO2 SLP168 T10671117 FZRANO